sensor_id;sensor_type;location;lat;lon;timestamp;temperature;humidity
43862;DHT22;29510;52.140;5.034;2022-11-20T00:07:31;-0.60;99.90
43862;DHT22;29510;52.140;5.034;2022-11-20T00:17:32;-0.50;99.90
43862;DHT22;29510;52.140;5.034;2022-11-20T00:27:33;-0.50;99.90
43862;DHT22;29510;52.140;5.034;2022-11-20T00:37:34;-0.50;99.90
43862;DHT22;29510;52.140;5.034;2022-11-20T00:47:35;-0.70;99.90
43862;DHT22;29510;52.140;5.034;2022-11-20T00:57:36;-0.80;99.90
43862;DHT22;29510;52.140;5.034;2022-11-20T01:07:37;-0.70;99.90
43862;DHT22;29510;52.140;5.034;2022-11-20T01:17:38;-0.60;99.90
43862;DHT22;29510;52.140;5.034;2022-11-20T01:27:39;-0.80;99.90
43862;DHT22;29510;52.140;5.034;2022-11-20T01:37:40;-1.10;99.90
43862;DHT22;29510;52.140;5.034;2022-11-20T01:47:44;-1.10;99.90
43862;DHT22;29510;52.140;5.034;2022-11-20T01:57:48;-1.10;99.90
43862;DHT22;29510;52.140;5.034;2022-11-20T02:07:49;-1.20;99.90
43862;DHT22;29510;52.140;5.034;2022-11-20T02:17:51;-1.20;99.90
43862;DHT22;29510;52.140;5.034;2022-11-20T02:27:52;-1.30;99.90
43862;DHT22;29510;52.140;5.034;2022-11-20T02:37:54;-1.20;99.90
43862;DHT22;29510;52.140;5.034;2022-11-20T02:47:56;-1.20;99.90
43862;DHT22;29510;52.140;5.034;2022-11-20T02:57:57;-1.40;99.90
43862;DHT22;29510;52.140;5.034;2022-11-20T03:07:58;-1.40;99.90
43862;DHT22;29510;52.140;5.034;2022-11-20T03:17:59;-1.50;99.90
43862;DHT22;29510;52.140;5.034;2022-11-20T03:28:00;-1.60;99.90
43862;DHT22;29510;52.140;5.034;2022-11-20T03:38:01;-1.60;99.90
43862;DHT22;29510;52.140;5.034;2022-11-20T03:48:03;-1.60;99.90
43862;DHT22;29510;52.140;5.034;2022-11-20T03:58:04;-1.70;99.90
43862;DHT22;29510;52.140;5.034;2022-11-20T04:08:05;-1.60;99.90
43862;DHT22;29510;52.140;5.034;2022-11-20T04:18:06;-1.70;99.90
43862;DHT22;29510;52.140;5.034;2022-11-20T04:28:07;-1.70;99.90
43862;DHT22;29510;52.140;5.034;2022-11-20T04:38:08;-1.80;99.90
43862;DHT22;29510;52.140;5.034;2022-11-20T04:48:09;-1.80;99.90
43862;DHT22;29510;52.140;5.034;2022-11-20T04:58:11;-1.60;99.90
43862;DHT22;29510;52.140;5.034;2022-11-20T05:08:12;-1.70;99.90
43862;DHT22;29510;52.140;5.034;2022-11-20T05:18:13;-1.80;99.90
43862;DHT22;29510;52.140;5.034;2022-11-20T05:28:14;-1.80;99.90
43862;DHT22;29510;52.140;5.034;2022-11-20T05:38:15;-1.90;99.90
43862;DHT22;29510;52.140;5.034;2022-11-20T05:48:16;-2.00;99.90
43862;DHT22;29510;52.140;5.034;2022-11-20T05:58:17;-2.00;99.90
43862;DHT22;29510;52.140;5.034;2022-11-20T06:08:18;-2.10;99.90
43862;DHT22;29510;52.140;5.034;2022-11-20T06:18:19;-2.10;99.90
43862;DHT22;29510;52.140;5.034;2022-11-20T06:28:20;-2.10;99.90
43862;DHT22;29510;52.140;5.034;2022-11-20T06:38:23;-2.00;99.90
43862;DHT22;29510;52.140;5.034;2022-11-20T06:48:27;-1.70;99.90
43862;DHT22;29510;52.140;5.034;2022-11-20T06:58:29;-1.80;99.90
43862;DHT22;29510;52.140;5.034;2022-11-20T07:08:31;-1.70;99.90
43862;DHT22;29510;52.140;5.034;2022-11-20T07:18:33;-1.60;99.90
43862;DHT22;29510;52.140;5.034;2022-11-20T07:28:34;-1.60;99.90
43862;DHT22;29510;52.140;5.034;2022-11-20T07:38:37;-1.50;99.90
43862;DHT22;29510;52.140;5.034;2022-11-20T07:48:38;-1.50;99.90
43862;DHT22;29510;52.140;5.034;2022-11-20T07:58:39;-1.30;99.90
43862;DHT22;29510;52.140;5.034;2022-11-20T08:08:40;-1.20;99.90
43862;DHT22;29510;52.140;5.034;2022-11-20T08:18:41;-1.00;99.90
43862;DHT22;29510;52.140;5.034;2022-11-20T08:28:42;-1.00;99.90
43862;DHT22;29510;52.140;5.034;2022-11-20T08:38:50;-1.00;99.90
43862;DHT22;29510;52.140;5.034;2022-11-20T08:48:52;-0.90;99.90
43862;DHT22;29510;52.140;5.034;2022-11-20T08:58:53;-0.70;99.90
43862;DHT22;29510;52.140;5.034;2022-11-20T09:08:54;-0.60;99.90
43862;DHT22;29510;52.140;5.034;2022-11-20T09:18:56;-0.40;99.90
43862;DHT22;29510;52.140;5.034;2022-11-20T09:28:57;-0.20;99.90
43862;DHT22;29510;52.140;5.034;2022-11-20T09:38:58;-0.10;99.90
43862;DHT22;29510;52.140;5.034;2022-11-20T09:49:36;0.10;99.90
43862;DHT22;29510;52.140;5.034;2022-11-20T09:59:42;0.30;99.90
43862;DHT22;29510;52.140;5.034;2022-11-20T10:09:52;0.60;99.90
43862;DHT22;29510;52.140;5.034;2022-11-20T10:30:18;1.00;99.90
43862;DHT22;29510;52.140;5.034;2022-11-20T10:40:37;1.10;99.90
43862;DHT22;29510;52.140;5.034;2022-11-20T10:50:53;1.20;99.90
43862;DHT22;29510;52.140;5.034;2022-11-20T11:01:05;1.40;99.90
43862;DHT22;29510;52.140;5.034;2022-11-20T11:11:23;1.50;99.90
43862;DHT22;29510;52.140;5.034;2022-11-20T11:21:25;1.60;99.90
43862;DHT22;29510;52.140;5.034;2022-11-20T11:31:31;1.70;99.90
43862;DHT22;29510;52.140;5.034;2022-11-20T11:41:33;1.80;99.90
43862;DHT22;29510;52.140;5.034;2022-11-20T11:52:01;1.90;99.90
43862;DHT22;29510;52.140;5.034;2022-11-20T12:02:15;1.90;99.90
43862;DHT22;29510;52.140;5.034;2022-11-20T12:12:32;2.00;99.90
43862;DHT22;29510;52.140;5.034;2022-11-20T12:22:57;2.10;99.90
43862;DHT22;29510;52.140;5.034;2022-11-20T12:33:37;2.20;99.90
43862;DHT22;29510;52.140;5.034;2022-11-20T12:43:51;2.20;99.90
43862;DHT22;29510;52.140;5.034;2022-11-20T13:04:39;2.30;99.90
43862;DHT22;29510;52.140;5.034;2022-11-20T13:15:02;2.30;99.90
43862;DHT22;29510;52.140;5.034;2022-11-20T13:25:09;2.40;99.90
43862;DHT22;29510;52.140;5.034;2022-11-20T13:35:10;2.40;99.90
43862;DHT22;29510;52.140;5.034;2022-11-20T13:45:29;2.50;99.90
43862;DHT22;29510;52.140;5.034;2022-11-20T13:55:34;2.50;99.90
43862;DHT22;29510;52.140;5.034;2022-11-20T14:05:50;2.50;99.90
43862;DHT22;29510;52.140;5.034;2022-11-20T14:15:56;2.60;99.90
43862;DHT22;29510;52.140;5.034;2022-11-20T14:25:57;2.50;99.90
43862;DHT22;29510;52.140;5.034;2022-11-20T14:35:58;2.50;99.90
43862;DHT22;29510;52.140;5.034;2022-11-20T14:46:02;2.50;99.90
43862;DHT22;29510;52.140;5.034;2022-11-20T14:56:04;2.50;99.90
43862;DHT22;29510;52.140;5.034;2022-11-20T15:06:07;2.60;99.90
43862;DHT22;29510;52.140;5.034;2022-11-20T15:16:21;2.60;99.90
43862;DHT22;29510;52.140;5.034;2022-11-20T15:26:26;2.60;99.90
43862;DHT22;29510;52.140;5.034;2022-11-20T15:36:27;2.80;99.90
43862;DHT22;29510;52.140;5.034;2022-11-20T15:46:31;2.80;99.90
43862;DHT22;29510;52.140;5.034;2022-11-20T15:56:38;2.80;99.90
43862;DHT22;29510;52.140;5.034;2022-11-20T16:06:40;2.80;99.90
43862;DHT22;29510;52.140;5.034;2022-11-20T16:16:41;2.80;99.90
43862;DHT22;29510;52.140;5.034;2022-11-20T16:26:43;2.90;99.90
43862;DHT22;29510;52.140;5.034;2022-11-20T16:36:44;2.90;99.90
43862;DHT22;29510;52.140;5.034;2022-11-20T16:46:45;2.90;99.90
43862;DHT22;29510;52.140;5.034;2022-11-20T16:56:46;3.00;99.90
43862;DHT22;29510;52.140;5.034;2022-11-20T17:06:48;3.00;99.90
43862;DHT22;29510;52.140;5.034;2022-11-20T17:16:49;3.10;99.90
43862;DHT22;29510;52.140;5.034;2022-11-20T17:26:50;3.10;99.90
43862;DHT22;29510;52.140;5.034;2022-11-20T17:36:51;3.10;99.90
43862;DHT22;29510;52.140;5.034;2022-11-20T17:46:52;3.20;99.90
43862;DHT22;29510;52.140;5.034;2022-11-20T17:56:53;3.20;99.90
43862;DHT22;29510;52.140;5.034;2022-11-20T18:07:12;3.20;99.90
43862;DHT22;29510;52.140;5.034;2022-11-20T18:17:14;3.10;99.90
43862;DHT22;29510;52.140;5.034;2022-11-20T18:27:18;3.10;99.90
43862;DHT22;29510;52.140;5.034;2022-11-20T18:37:19;3.10;99.90
43862;DHT22;29510;52.140;5.034;2022-11-20T18:47:23;3.20;99.90
43862;DHT22;29510;52.140;5.034;2022-11-20T18:57:26;3.20;99.90
43862;DHT22;29510;52.140;5.034;2022-11-20T19:07:27;3.20;99.90
43862;DHT22;29510;52.140;5.034;2022-11-20T19:17:28;3.20;99.90
43862;DHT22;29510;52.140;5.034;2022-11-20T19:27:29;3.20;99.90
43862;DHT22;29510;52.140;5.034;2022-11-20T19:37:33;3.30;99.90
43862;DHT22;29510;52.140;5.034;2022-11-20T19:47:35;3.20;99.90
43862;DHT22;29510;52.140;5.034;2022-11-20T19:57:36;3.20;99.90
43862;DHT22;29510;52.140;5.034;2022-11-20T20:07:40;3.20;99.90
43862;DHT22;29510;52.140;5.034;2022-11-20T20:17:41;3.20;99.90
43862;DHT22;29510;52.140;5.034;2022-11-20T20:27:42;3.20;99.90
43862;DHT22;29510;52.140;5.034;2022-11-20T20:37:43;3.30;99.90
43862;DHT22;29510;52.140;5.034;2022-11-20T20:47:44;3.30;99.90
43862;DHT22;29510;52.140;5.034;2022-11-20T20:57:45;3.30;99.90
43862;DHT22;29510;52.140;5.034;2022-11-20T21:07:46;3.20;99.90
43862;DHT22;29510;52.140;5.034;2022-11-20T21:18:06;3.20;99.90
43862;DHT22;29510;52.140;5.034;2022-11-20T21:28:07;3.20;99.90
43862;DHT22;29510;52.140;5.034;2022-11-20T21:38:08;3.10;99.90
43862;DHT22;29510;52.140;5.034;2022-11-20T21:48:09;3.20;99.90
43862;DHT22;29510;52.140;5.034;2022-11-20T21:58:10;3.20;99.90
43862;DHT22;29510;52.140;5.034;2022-11-20T22:08:11;3.30;99.90
43862;DHT22;29510;52.140;5.034;2022-11-20T22:18:12;3.30;99.90
43862;DHT22;29510;52.140;5.034;2022-11-20T22:28:13;3.20;99.90
43862;DHT22;29510;52.140;5.034;2022-11-20T22:38:16;3.20;99.90
43862;DHT22;29510;52.140;5.034;2022-11-20T22:48:17;3.20;99.90
43862;DHT22;29510;52.140;5.034;2022-11-20T22:58:18;3.30;99.90
43862;DHT22;29510;52.140;5.034;2022-11-20T23:08:19;3.20;99.90
43862;DHT22;29510;52.140;5.034;2022-11-20T23:18:20;3.20;99.90
43862;DHT22;29510;52.140;5.034;2022-11-20T23:28:21;3.20;99.90
43862;DHT22;29510;52.140;5.034;2022-11-20T23:38:22;3.20;99.90
43862;DHT22;29510;52.140;5.034;2022-11-20T23:48:28;3.10;99.90
43862;DHT22;29510;52.140;5.034;2022-11-20T23:58:32;3.10;99.90
